Accueil
METAR-TAF:

METAR-TAF

Aéroports :

Aéroport international de Kunming Changshui

Kunming, Chine

latitude: 25-01N, longitude: 102-41E, altitude: 1892 m

Observation

Le bulletin a été fait il y a 44 minutes, à 16:00 UTC
Vent 8 kt de sud/sud-ouest
Température 10°C
Humidité 82%
Pression 1024 hPa
Visibilité 10 km ou plus
pas de nuages en-dessous de 1500 mètres et pas de cumulonimbus.

METAR: ZPPP 211600Z 20004MPS CAVOK 10/07 Q1024 NOSIG

Heure: 00:44 (16:44 UTC)

Prévision

Le bulletin a été fait il y a 9 heures et 32 minutes, à 07:12 UTC
Prévision valable du 21 à 12 UTC au 22 à 12 UTC
Vent 12 kt de sud-ouest
Visibilité 10 km ou plus
Quelques nuages à une hauteur de 2600 ft

TAF: ZPPP 210712Z 2112/2212 22006MPS 9999 FEW026 TX18/2208Z TN06/2123Z

Observations et prévisions météorologiques de plus de 4000 aéroports (messages METAR et TAF).

Les stations disponibles sont représentées par des disques jaunes et rouges sur la carte.

Passer la souris dessus pour voir le nom de la station.

Cliquer dessus pour voir les observations et prévisions météorologiques.

Pour changer de carte: cliquez sur les boutons verts avec une croix noire pour zoomer, sur le bouton vert avec un tiret pour effectuer un zoom arrière, ou sur les flèches vertes pour les cartes adjacentes.


METAR-TAF: